map of HLG home
HLG - Airport
Location
City:  Wheeling, West Virginia, United States
Name:Wheeling Ohio County Airport
ICAO:KHLG
IATA:HLG
FAA LID:HLG

Details
Type:Airport (Airfield)
Use:Public/Civil
Latitude:4010'30"N (40.175000)
Longitude:8038'47"W (-80.646277)
Datum:WGS 1984
Elevation:1194 ft (364 m)
Variation:8.81W (WMM2015 magnetic declination)
-0.03 annual change
Runways:2
Longest:5002 × 150 ft (1525 × 45.5 m), paved

Time
Time Zone:UTC-5 (DST-4)
Local Time:

Weather
METAR:KHLG 131611Z 25013G23KT 10SM BKN031 M06/M13 A2981 RMK AO2 T10611133
TAF:KHLG 131134Z 1312/1412 26013G20KT P6SM OVC050
FM140300 23012G22KT 2SM -SN OVC010

Related Locations
Nearby:
Farthest:MQZ: 11471 mi / 18461 km
Margaret River [Margaret River Airport], WA, AU

Find:

   beyond  
but within

Other Information
Maps:
NOTAMs:
Links:
Sources:

  
flag of United States
flag of West Virginia
  

Airport Diagram

Airport diagram for HLG

Airport diagram PDF

Sectional Chart

Flight Planning
at skyvector.com

Satellite Image

Google Maps Satellite view

 

Copyright © 2004-2017 Karl L. Swartz. All rights reserved.
The Great Circle Mapper name and logo are trademarks of the Great Circle Mapper.
All other trademarks mentioned herein belong to their respective owners.
Please see credits for attibutions and further copyright information.

  Follow gcmap on Facebook Follow gcmap on Twitter Follow gcmap on Google+ GCmap on LinkedIn

hCard Microformat

Geo Microformat